Schneider, Indiana
Current Conditions -  °F | °C
As of 12:55 PM on Thursday 23 Oct 2014 (Local Time) from KRZL Reporting Station
Clear Clear  
Wind Chill: 57°   Ceiling: Unl
Heat Index: 57°   Visibility: 10mi
Dew Point: 43°   Wind: 7mph
Humidity: 59%   Direction: 240°WSW
Pressure: 30.19"   Gusts: NA
Location:  41.19°N, 87.45°W
Report Text: KRZL 231755Z AUTO 24006KT 10SM CLR 14/06 A3019 RMK AO2
Loading
Personal Weather Stations






























Interactive Weather Map
Tropical Storm Tracking
New forecast layout! Learn more

10-Day Weather Forecast

Advertisements
Track Severe Weather on mobile